Time,TemperatureF,DewpointF,PressureIn,WindDirection,WindDirectionDegrees,WindSpeedMPH,WindSpeedGustMPH,Humidity,HourlyPrecipIn,Conditions,Clouds,dailyrainin,SoftwareType,DateUTC
2013-04-21 00:00:00,32.4,25.0,30.38,West,281,0.0,0.0,73,0.00,,,0.03,weatherlink.com 1.10,2013-04-21 04:00:00,
2013-04-21 00:15:00,31.1,24.0,30.39,West,281,0.0,0.0,75,0.00,,,0.00,weatherlink.com 1.10,2013-04-21 04:15:00,
2013-04-21 00:30:00,30.1,24.0,30.39,West,281,0.0,0.0,77,0.00,,,0.00,weatherlink.com 1.10,2013-04-21 04:30:00,
2013-04-21 00:45:00,29.3,24.0,30.40,West,281,0.0,0.0,79,0.00,,,0.00,weatherlink.com 1.10,2013-04-21 04:45:00,
2013-04-21 01:00:00,28.3,23.0,30.40,West,281,0.0,0.0,80,0.00,,,0.00,weatherlink.com 1.10,2013-04-21 05:00:00,
2013-04-21 01:15:00,28.3,24.0,30.40,West,281,0.0,0.0,83,0.00,,,0.00,weatherlink.com 1.10,2013-04-21 05:15:00,
2013-04-21 01:30:00,27.9,24.0,30.41,West,281,0.0,0.0,84,0.00,,,0.00,weatherlink.com 1.10,2013-04-21 05:30:00,
2013-04-21 01:45:00,27.7,24.0,30.41,West,281,0.0,0.0,85,0.00,,,0.00,weatherlink.com 1.10,2013-04-21 05:45:00,
2013-04-21 02:00:00,27.2,23.0,30.41,West,281,0.0,0.0,85,0.00,,,0.00,weatherlink.com 1.10,2013-04-21 06:00:00,
2013-04-21 02:15:00,26.8,23.0,30.42,West,281,0.0,0.0,86,0.00,,,0.00,weatherlink.com 1.10,2013-04-21 06:15:00,
2013-04-21 02:30:00,26.9,24.0,30.42,West,281,0.0,0.0,87,0.00,,,0.00,weatherlink.com 1.10,2013-04-21 06:30:00,
2013-04-21 02:45:00,26.9,24.0,30.42,West,281,0.0,0.0,87,0.00,,,0.00,weatherlink.com 1.10,2013-04-21 06:45:00,
2013-04-21 03:01:00,26.3,23.0,30.43,West,281,0.0,0.0,87,0.00,,,0.00,weatherlink.com 1.10,2013-04-21 07:01:00,
2013-04-21 03:16:00,26.5,23.0,30.43,West,281,0.0,0.0,88,0.00,,,0.00,weatherlink.com 1.10,2013-04-21 07:16:00,
2013-04-21 03:31:00,26.5,23.0,30.43,West,281,0.0,0.0,88,0.00,,,0.00,weatherlink.com 1.10,2013-04-21 07:31:00,
2013-04-21 03:46:00,26.4,23.0,30.44,West,281,0.0,0.0,88,0.00,,,0.00,weatherlink.com 1.10,2013-04-21 07:46:00,
2013-04-21 04:01:00,26.7,24.0,30.44,West,281,0.0,0.0,89,0.00,,,0.00,weatherlink.com 1.10,2013-04-21 08:01:00,
2013-04-21 04:16:00,26.4,23.0,30.45,West,281,0.0,0.0,88,0.00,,,0.00,weatherlink.com 1.10,2013-04-21 08:16:00,
2013-04-21 04:31:00,26.3,24.0,30.45,West,281,0.0,0.0,89,0.00,,,0.00,weatherlink.com 1.10,2013-04-21 08:31:00,
2013-04-21 04:46:00,26.0,23.0,30.45,West,281,0.0,0.0,89,0.00,,,0.00,weatherlink.com 1.10,2013-04-21 08:46:00,
2013-04-21 05:01:00,25.6,23.0,30.46,West,281,0.0,0.0,89,0.00,,,0.00,weatherlink.com 1.10,2013-04-21 09:01:00,
2013-04-21 05:16:00,25.1,22.0,30.47,West,281,0.0,0.0,89,0.00,,,0.00,weatherlink.com 1.10,2013-04-21 09:16:00,
2013-04-21 05:31:00,25.1,22.0,30.47,West,281,0.0,0.0,89,0.00,,,0.00,weatherlink.com 1.10,2013-04-21 09:31:00,
2013-04-21 05:46:00,24.8,22.0,30.48,West,281,0.0,0.0,90,0.00,,,0.00,weatherlink.com 1.10,2013-04-21 09:46:00,
2013-04-21 06:01:00,24.7,22.0,30.48,West,281,0.0,0.0,90,0.00,,,0.00,weatherlink.com 1.10,2013-04-21 10:01:00,
2013-04-21 06:16:00,24.4,22.0,30.49,West,281,0.0,0.0,90,0.00,,,0.00,weatherlink.com 1.10,2013-04-21 10:16:00,
2013-04-21 06:31:00,24.2,22.0,30.50,West,281,0.0,0.0,90,0.00,,,0.00,weatherlink.com 1.10,2013-04-21 10:31:00,
2013-04-21 06:46:00,23.6,21.0,30.51,West,281,0.0,0.0,90,0.00,,,0.00,weatherlink.com 1.10,2013-04-21 10:46:00,
2013-04-21 07:01:00,24.0,22.0,30.52,West,281,0.0,0.0,91,0.00,,,0.00,weatherlink.com 1.10,2013-04-21 11:01:00,
2013-04-21 07:16:00,24.3,22.0,30.53,West,281,0.0,0.0,91,0.00,,,0.00,weatherlink.com 1.10,2013-04-21 11:16:00,
2013-04-21 07:31:00,25.9,24.0,30.54,West,281,0.0,0.0,92,0.00,,,0.00,weatherlink.com 1.10,2013-04-21 11:31:00,
2013-04-21 07:46:00,29.6,28.0,30.55,West,281,0.0,0.0,92,0.00,,,0.00,weatherlink.com 1.10,2013-04-21 11:46:00,
2013-04-21 08:01:00,31.8,29.0,30.55,SE,124,0.0,1.0,90,0.00,,,0.00,weatherlink.com 1.10,2013-04-21 12:01:00,
2013-04-21 08:16:00,33.3,28.0,30.55,NE,43,2.0,4.0,80,0.00,,,0.00,weatherlink.com 1.10,2013-04-21 12:16:00,
2013-04-21 08:31:00,34.2,26.0,30.56,East,94,3.0,5.0,72,0.00,,,0.00,weatherlink.com 1.10,2013-04-21 12:31:00,
2013-04-21 08:46:00,35.3,26.0,30.56,ENE,60,0.0,5.0,70,0.00,,,0.00,weatherlink.com 1.10,2013-04-21 12:46:00,
2013-04-21 09:02:00,36.1,24.0,30.57,ENE,72,1.0,5.0,62,0.00,,,0.00,weatherlink.com 1.10,2013-04-21 13:02:00,
2013-04-21 09:17:00,36.9,23.0,30.57,NE,54,2.0,6.0,58,0.00,,,0.00,weatherlink.com 1.10,2013-04-21 13:17:00,
2013-04-21 09:32:00,37.6,24.0,30.57,NNE,22,3.0,6.0,58,0.00,,,0.00,weatherlink.com 1.10,2013-04-21 13:32:00,
2013-04-21 09:47:00,37.4,23.0,30.57,SSE,151,1.0,5.0,56,0.00,,,0.00,weatherlink.com 1.10,2013-04-21 13:47:00,
2013-04-21 10:02:00,38.5,22.0,30.57,ESE,111,1.0,6.0,52,0.00,,,0.00,weatherlink.com 1.10,2013-04-21 14:02:00,
2013-04-21 10:17:00,39.3,21.0,30.58,NNW,347,1.0,5.0,49,0.00,,,0.00,weatherlink.com 1.10,2013-04-21 14:17:00,
2013-04-21 10:32:00,38.9,22.0,30.57,East,95,2.0,5.0,50,0.00,,,0.00,weatherlink.com 1.10,2013-04-21 14:32:00,
2013-04-21 10:47:00,39.5,22.0,30.57,ESE,122,3.0,7.0,49,0.00,,,0.00,weatherlink.com 1.10,2013-04-21 14:47:00,
2013-04-21 11:02:00,39.9,20.0,30.57,NE,54,3.0,8.0,45,0.00,,,0.00,weatherlink.com 1.10,2013-04-21 15:02:00,
2013-04-21 11:17:00,40.6,20.0,30.57,East,96,1.0,5.0,43,0.00,,,0.00,weatherlink.com 1.10,2013-04-21 15:17:00,
2013-04-21 11:32:00,40.4,19.0,30.57,NW,325,0.0,7.0,43,0.00,,,0.00,weatherlink.com 1.10,2013-04-21 15:32:00,
2013-04-21 11:47:00,41.4,21.0,30.57,NNE,16,4.0,5.0,45,0.00,,,0.00,weatherlink.com 1.10,2013-04-21 15:47:00,
2013-04-21 12:02:00,42.3,21.0,30.56,NE,44,5.0,6.0,43,0.00,,,0.00,weatherlink.com 1.10,2013-04-21 16:02:00,
2013-04-21 12:17:00,43.6,23.0,30.55,East,98,5.0,8.0,45,0.00,,,0.00,weatherlink.com 1.10,2013-04-21 16:17:00,
2013-04-21 12:32:00,43.9,21.0,30.55,WNW,293,1.0,5.0,41,0.00,,,0.00,weatherlink.com 1.10,2013-04-21 16:32:00,
2013-04-21 12:47:00,44.1,22.0,30.55,NNE,27,4.0,6.0,41,0.00,,,0.00,weatherlink.com 1.10,2013-04-21 16:47:00,
2013-04-21 13:02:00,44.8,22.0,30.54,NE,51,1.0,6.0,40,0.00,,,0.00,weatherlink.com 1.10,2013-04-21 17:02:00,
2013-04-21 13:17:00,45.3,21.0,30.54,NNW,335,0.0,9.0,39,0.00,,,0.00,weatherlink.com 1.10,2013-04-21 17:17:00,
2013-04-21 13:32:00,46.4,21.0,30.53,West,276,1.0,6.0,37,0.00,,,0.00,weatherlink.com 1.10,2013-04-21 17:32:00,
2013-04-21 13:47:00,47.1,22.0,30.52,NNW,342,3.0,6.0,38,0.00,,,0.00,weatherlink.com 1.10,2013-04-21 17:47:00,
2013-04-21 14:02:00,47.7,24.0,30.52,North,8,1.0,10.0,39,0.00,,,0.00,weatherlink.com 1.10,2013-04-21 18:02:00,
2013-04-21 14:17:00,48.1,22.0,30.51,ENE,72,1.0,8.0,36,0.00,,,0.00,weatherlink.com 1.10,2013-04-21 18:17:00,
2013-04-21 14:32:00,48.1,22.0,30.51,ESE,119,1.0,4.0,36,0.00,,,0.00,weatherlink.com 1.10,2013-04-21 18:32:00,
2013-04-21 14:47:00,48.9,25.0,30.50,North,353,5.0,9.0,39,0.00,,,0.00,weatherlink.com 1.10,2013-04-21 18:47:00,
2013-04-21 15:02:00,49.3,23.0,30.49,WNW,294,1.0,5.0,36,0.00,,,0.00,weatherlink.com 1.10,2013-04-21 19:02:00,
2013-04-21 15:17:00,50.3,23.0,30.48,NNE,26,5.0,8.0,34,0.00,,,0.00,weatherlink.com 1.10,2013-04-21 19:17:00,
2013-04-21 15:32:00,51.4,21.0,30.48,SE,140,1.0,6.0,30,0.00,,,0.00,weatherlink.com 1.10,2013-04-21 19:32:00,
2013-04-21 15:47:00,51.2,22.0,30.47,NNW,332,2.0,8.0,32,0.00,,,0.00,weatherlink.com 1.10,2013-04-21 19:47:00,
2013-04-21 16:02:00,51.3,22.0,30.46,NNW,330,3.0,4.0,32,0.00,,,0.00,weatherlink.com 1.10,2013-04-21 20:02:00,
2013-04-21 16:17:00,51.8,22.0,30.45,East,94,1.0,4.0,31,0.00,,,0.00,weatherlink.com 1.10,2013-04-21 20:17:00,
2013-04-21 16:33:00,53.0,21.0,30.45,NE,49,3.0,5.0,29,0.00,,,0.00,weatherlink.com 1.10,2013-04-21 20:33:00,
2013-04-21 16:48:00,53.2,22.0,30.45,North,9,1.0,5.0,29,0.00,,,0.00,weatherlink.com 1.10,2013-04-21 20:48:00,
2013-04-21 17:03:00,53.7,22.0,30.44,ENE,65,1.0,6.0,29,0.00,,,0.00,weatherlink.com 1.10,2013-04-21 21:03:00,
2013-04-21 17:18:00,53.4,22.0,30.44,NNE,32,2.0,6.0,29,0.00,,,0.00,weatherlink.com 1.10,2013-04-21 21:18:00,
2013-04-21 17:33:00,54.2,22.0,30.44,ESE,102,2.0,4.0,28,0.00,,,0.00,weatherlink.com 1.10,2013-04-21 21:33:00,
2013-04-21 17:48:00,54.1,21.0,30.44,NNW,346,2.0,5.0,27,0.00,,,0.00,weatherlink.com 1.10,2013-04-21 21:48:00,
2013-04-21 18:03:00,53.9,22.0,30.44,NNE,15,0.0,6.0,29,0.00,,,0.00,weatherlink.com 1.10,2013-04-21 22:03:00,
2013-04-21 18:18:00,53.5,23.0,30.44,NNE,33,0.0,4.0,30,0.00,,,0.00,weatherlink.com 1.10,2013-04-21 22:18:00,
2013-04-21 18:33:00,52.8,24.0,30.44,NNE,28,1.0,4.0,33,0.00,,,0.00,weatherlink.com 1.10,2013-04-21 22:33:00,
2013-04-21 18:48:00,52.3,25.0,30.44,East,85,0.0,3.0,35,0.00,,,0.00,weatherlink.com 1.10,2013-04-21 22:48:00,
2013-04-21 19:03:00,52.2,22.0,30.44,ENE,68,1.0,5.0,31,0.00,,,0.00,weatherlink.com 1.10,2013-04-21 23:03:00,
2013-04-21 19:18:00,51.8,22.0,30.44,East,81,2.0,3.0,31,0.00,,,0.00,weatherlink.com 1.10,2013-04-21 23:18:00,
2013-04-21 19:33:00,50.9,22.0,30.45,NNE,22,0.0,4.0,32,0.00,,,0.00,weatherlink.com 1.10,2013-04-21 23:33:00,
2013-04-21 19:48:00,50.1,21.0,30.45,ENE,61,1.0,3.0,32,0.00,,,0.00,weatherlink.com 1.10,2013-04-21 23:48:00,
2013-04-21 20:03:00,49.2,21.0,30.46,NNE,23,2.0,7.0,33,0.00,,,0.00,weatherlink.com 1.10,2013-04-22 00:03:00,
2013-04-21 20:18:00,48.6,21.0,30.46,ENE,62,1.0,5.0,33,0.00,,,0.00,weatherlink.com 1.10,2013-04-22 00:18:00,
2013-04-21 20:33:00,47.6,21.0,30.46,NNE,33,0.0,2.0,35,0.00,,,0.00,weatherlink.com 1.10,2013-04-22 00:33:00,
2013-04-21 20:48:00,46.9,21.0,30.46,ENE,57,0.0,2.0,36,0.00,,,0.00,weatherlink.com 1.10,2013-04-22 00:48:00,
2013-04-21 21:03:00,46.5,21.0,30.47,NNE,32,0.0,3.0,37,0.00,,,0.00,weatherlink.com 1.10,2013-04-22 01:03:00,
2013-04-21 21:18:00,46.1,22.0,30.47,ENE,70,0.0,2.0,38,0.00,,,0.00,weatherlink.com 1.10,2013-04-22 01:18:00,
2013-04-21 21:33:00,45.5,22.0,30.47,North,8,2.0,2.0,40,0.00,,,0.00,weatherlink.com 1.10,2013-04-22 01:33:00,
2013-04-21 21:48:00,45.7,21.0,30.48,ESE,105,2.0,5.0,38,0.00,,,0.00,weatherlink.com 1.10,2013-04-22 01:48:00,
2013-04-21 22:03:00,45.5,22.0,30.48,ENE,75,1.0,3.0,40,0.00,,,0.00,weatherlink.com 1.10,2013-04-22 02:03:00,
2013-04-21 22:18:00,45.2,21.0,30.48,NE,39,1.0,3.0,39,0.00,,,0.00,weatherlink.com 1.10,2013-04-22 02:18:00,
2013-04-21 22:33:00,44.7,22.0,30.48,ENE,75,0.0,3.0,40,0.00,,,0.00,weatherlink.com 1.10,2013-04-22 02:33:00,
2013-04-21 22:48:00,43.7,22.0,30.48,ENE,57,0.0,1.0,43,0.00,,,0.00,weatherlink.com 1.10,2013-04-22 02:48:00,
2013-04-21 23:03:00,43.2,22.0,30.48,ENE,66,0.0,1.0,44,0.00,,,0.00,weatherlink.com 1.10,2013-04-22 03:03:00,
2013-04-21 23:18:00,42.8,25.0,30.48,ENE,64,1.0,3.0,49,0.00,,,0.00,weatherlink.com 1.10,2013-04-22 03:18:00,
2013-04-21 23:33:00,42.6,24.0,30.48,ENE,77,0.0,1.0,49,0.00,,,0.00,weatherlink.com 1.10,2013-04-22 03:33:00,
2013-04-21 23:48:00,42.5,24.0,30.48,ESE,103,2.0,2.0,48,0.00,,,0.00,weatherlink.com 1.10,2013-04-22 03:48:00,